createdAt,value
2022-09-20T00:01:27.531Z,0.30
2022-09-20T00:03:57.280Z,0.20
2022-09-20T00:06:28.652Z,0.28
2022-09-20T00:08:56.804Z,0.30
2022-09-20T00:11:30.130Z,0.35
2022-09-20T00:13:59.286Z,0.50
2022-09-20T00:16:32.637Z,0.30
2022-09-20T00:19:03.891Z,0.45
2022-09-20T00:21:32.309Z,0.40
2022-09-20T00:23:59.726Z,0.50
2022-09-20T00:26:28.320Z,0.20
2022-09-20T00:28:55.710Z,0.22
2022-09-20T00:31:23.043Z,0.50
2022-09-20T00:34:10.067Z,0.20
2022-09-20T00:36:37.081Z,0.22
2022-09-20T00:39:04.279Z,0.30
2022-09-20T00:41:32.505Z,0.22
2022-09-20T00:44:00.723Z,0.32
2022-09-20T00:46:44.646Z,0.80
2022-09-20T00:49:22.067Z,0.38
2022-09-20T00:51:55.529Z,0.30
2022-09-20T00:54:24.127Z,0.17
2022-09-20T00:56:51.992Z,0.40
2022-09-20T00:59:36.755Z,0.28
2022-09-20T01:02:16.091Z,0.20
2022-09-20T01:04:44.885Z,0.10
2022-09-20T01:07:16.312Z,0.30
2022-09-20T01:09:43.585Z,0.38
2022-09-20T01:12:15.141Z,0.25
2022-09-20T01:14:44.197Z,0.30
2022-09-20T01:17:12.897Z,0.30
2022-09-20T01:20:12.530Z,0.30
2022-09-20T01:23:14.839Z,0.15
2022-09-20T01:26:14.923Z,0.40
2022-09-20T01:28:45.335Z,0.52
2022-09-20T01:31:23.652Z,0.30
2022-09-20T01:33:57.611Z,0.20
2022-09-20T01:36:31.784Z,0.38
2022-09-20T01:39:16.857Z,0.32
2022-09-20T01:42:05.772Z,0.20
2022-09-20T01:44:58.331Z,0.52
2022-09-20T01:47:56.487Z,0.10
2022-09-20T01:50:34.324Z,0.25
2022-09-20T01:53:29.968Z,0.30
2022-09-20T01:56:32.481Z,0.20
2022-09-20T01:59:34.025Z,0.20
2022-09-20T02:02:40.793Z,0.10
2022-09-20T02:05:40.732Z,0.35
2022-09-20T02:08:29.129Z,0.30
2022-09-20T02:11:14.512Z,0.30
2022-09-20T02:14:08.946Z,0.28
2022-09-20T02:16:55.933Z,0.20
2022-09-20T02:19:33.840Z,0.20
2022-09-20T02:22:11.738Z,0.20
2022-09-20T02:25:06.441Z,0.20
2022-09-20T02:28:06.030Z,0.10
2022-09-20T02:30:52.201Z,0.30
2022-09-20T02:33:51.735Z,0.30
2022-09-20T02:36:41.919Z,0.30
2022-09-20T02:39:17.795Z,0.20
2022-09-20T02:42:24.531Z,0.20
2022-09-20T02:45:14.488Z,0.40
2022-09-20T02:47:44.220Z,0.10
2022-09-20T02:50:30.057Z,0.47
2022-09-20T02:53:36.899Z,0.30
2022-09-20T02:56:38.031Z,0.20
2022-09-20T02:59:32.057Z,0.10
2022-09-20T03:02:20.136Z,0.20
2022-09-20T03:05:24.087Z,0.20
2022-09-20T03:08:24.550Z,0.40
2022-09-20T03:11:04.247Z,0.57
2022-09-20T03:14:10.853Z,0.20
2022-09-20T03:17:17.948Z,0.22
2022-09-20T03:20:17.933Z,0.30
2022-09-20T03:23:19.413Z,0.30
2022-09-20T03:26:02.982Z,0.10
2022-09-20T03:28:53.453Z,0.20
2022-09-20T03:31:44.610Z,0.13
2022-09-20T03:34:49.722Z,0.25
2022-09-20T03:37:41.446Z,0.20
2022-09-20T03:40:46.662Z,0.13
2022-09-20T03:43:45.322Z,0.17
2022-09-20T03:46:28.192Z,0.30
2022-09-20T03:49:34.933Z,0.30
2022-09-20T03:52:41.367Z,0.20
2022-09-20T03:55:31.788Z,0.20
2022-09-20T04:01:01.837Z,0.20
2022-09-20T04:03:53.806Z,0.20
2022-09-20T04:06:59.307Z,0.20
2022-09-20T04:09:50.073Z,0.20
2022-09-20T04:12:45.735Z,0.40
2022-09-20T04:15:40.360Z,0.15
2022-09-20T04:18:37.853Z,0.10
2022-09-20T04:21:23.845Z,0.32
2022-09-20T04:24:09.738Z,0.13
2022-09-20T04:26:41.786Z,0.20
2022-09-20T04:29:29.952Z,0.40
2022-09-20T04:32:18.097Z,0.15
2022-09-20T04:35:26.129Z,0.60
2022-09-20T04:37:54.603Z,0.25
2022-09-20T04:41:00.168Z,0.30
2022-09-20T04:44:07.635Z,0.30
2022-09-20T04:47:15.379Z,0.20
2022-09-20T04:50:22.321Z,0.30
2022-09-20T04:53:20.941Z,0.30
2022-09-20T04:56:03.316Z,0.40
2022-09-20T04:59:06.181Z,0.38
2022-09-20T05:02:09.497Z,0.40
2022-09-20T05:05:16.632Z,0.30
2022-09-20T05:08:14.413Z,0.30
2022-09-20T05:11:12.661Z,0.50
2022-09-20T05:14:24.916Z,0.60
2022-09-20T05:17:31.575Z,0.55
2022-09-20T05:20:34.370Z,0.30
2022-09-20T05:23:28.094Z,0.52
2022-09-20T05:26:34.802Z,0.43
2022-09-20T05:29:42.540Z,0.30
2022-09-20T05:32:29.338Z,0.75
2022-09-20T05:35:21.506Z,0.75
2022-09-20T05:38:11.651Z,0.40
2022-09-20T05:41:19.131Z,0.50
2022-09-20T05:44:22.557Z,0.60
2022-09-20T05:54:23.649Z,0.63
2022-09-20T05:57:17.000Z,1.02
2022-09-20T06:00:02.467Z,0.80
2022-09-20T06:03:02.139Z,1.85
2022-09-20T06:06:01.250Z,2.40
2022-09-20T06:08:53.380Z,2.08
2022-09-20T06:12:00.158Z,1.80
2022-09-20T06:14:51.754Z,1.70
2022-09-20T06:17:36.727Z,1.75
2022-09-20T06:20:25.421Z,1.73
2022-09-20T06:22:59.284Z,1.38
2022-09-20T06:25:41.298Z,1.50
2022-09-20T06:28:16.434Z,1.42
2022-09-20T06:30:55.770Z,1.40
2022-09-20T06:33:25.771Z,1.50
2022-09-20T06:36:35.096Z,1.40
2022-09-20T06:39:51.267Z,0.93
2022-09-20T06:42:18.494Z,1.05
2022-09-20T06:44:45.526Z,1.08
2022-09-20T06:47:14.065Z,1.02
2022-09-20T06:49:42.545Z,1.00
2022-09-20T06:52:15.246Z,1.38
2022-09-20T06:54:46.311Z,1.10
2022-09-20T06:57:19.843Z,1.23
2022-09-20T06:59:46.884Z,1.23
2022-09-20T07:02:13.958Z,0.88
2022-09-20T07:04:41.027Z,0.88
2022-09-20T07:07:09.738Z,0.80
2022-09-20T07:09:36.952Z,1.00
2022-09-20T07:12:04.994Z,1.45
2022-09-20T07:14:32.206Z,1.40
2022-09-20T07:16:59.200Z,1.02
2022-09-20T07:19:26.200Z,1.17
2022-09-20T07:21:54.123Z,1.20
2022-09-20T07:24:21.727Z,1.10
2022-09-20T07:27:00.969Z,1.50
2022-09-20T07:29:28.860Z,1.00
2022-09-20T07:31:56.969Z,1.15
2022-09-20T07:34:25.035Z,1.85
2022-09-20T07:36:52.476Z,1.52
2022-09-20T07:39:19.557Z,0.93
2022-09-20T07:41:48.675Z,0.88
2022-09-20T07:44:27.436Z,0.73
2022-09-20T07:46:58.128Z,0.70
2022-09-20T07:49:26.340Z,1.10
2022-09-20T07:51:54.200Z,0.70
2022-09-20T07:54:21.709Z,0.60
2022-09-20T07:56:49.147Z,1.00
2022-09-20T07:59:16.688Z,0.88
2022-09-20T08:01:44.016Z,0.80
2022-09-20T08:04:11.714Z,0.70
2022-09-20T08:06:42.227Z,0.43
2022-09-20T08:09:11.466Z,0.40
2022-09-20T08:11:40.653Z,0.80
2022-09-20T08:14:09.248Z,0.57
2022-09-20T08:16:41.988Z,1.10
2022-09-20T08:19:14.207Z,0.50
2022-09-20T08:21:41.223Z,0.70
2022-09-20T08:24:08.287Z,0.60
2022-09-20T08:26:36.021Z,0.40
2022-09-20T08:29:05.389Z,0.60
2022-09-20T08:31:37.248Z,0.60
2022-09-20T08:34:06.915Z,0.47
2022-09-20T08:36:36.990Z,0.82
2022-09-20T08:42:04.907Z,0.68
2022-09-20T08:44:35.836Z,0.50
2022-09-20T08:47:16.146Z,0.55
2022-09-20T08:52:21.143Z,0.40
2022-09-20T08:54:48.220Z,0.60
2022-09-20T08:57:18.193Z,0.60
2022-09-20T08:59:45.797Z,0.45
2022-09-20T09:02:17.273Z,0.50
2022-09-20T09:04:45.566Z,0.68
2022-09-20T09:07:17.873Z,0.40
2022-09-20T09:09:47.443Z,0.30
2022-09-20T09:12:22.241Z,0.45
2022-09-20T09:14:57.670Z,0.40
2022-09-20T09:17:27.651Z,0.38
2022-09-20T09:22:35.351Z,0.40
2022-09-20T09:25:24.389Z,0.30
2022-09-20T09:28:13.427Z,0.50
2022-09-20T09:30:47.729Z,0.50
2022-09-20T09:33:30.026Z,0.63
2022-09-20T09:36:16.155Z,0.38
2022-09-20T09:38:46.322Z,0.32
2022-09-20T09:44:05.049Z,0.20
2022-09-20T09:46:34.915Z,0.50
2022-09-20T09:49:24.378Z,0.32
2022-09-20T09:52:15.510Z,0.55
2022-09-20T09:54:52.059Z,0.40
2022-09-20T09:57:54.034Z,0.50
2022-09-20T10:00:23.702Z,0.30
2022-09-20T10:03:19.530Z,0.40
2022-09-20T10:06:23.595Z,0.30
2022-09-20T10:09:14.764Z,0.40
2022-09-20T10:12:22.358Z,0.43
2022-09-20T10:15:07.984Z,0.45
2022-09-20T10:17:57.539Z,1.05
2022-09-20T10:20:47.570Z,0.40
2022-09-20T10:26:53.600Z,0.17
2022-09-20T10:29:46.992Z,0.25
2022-09-20T10:32:42.058Z,0.20
2022-09-20T10:35:45.644Z,0.20
2022-09-20T10:38:27.954Z,0.20
2022-09-20T10:41:50.268Z,0.30
2022-09-20T10:44:53.068Z,0.20
2022-09-20T10:47:43.893Z,0.38
2022-09-20T10:50:39.289Z,0.10
2022-09-20T10:53:27.328Z,0.40
2022-09-20T10:56:24.159Z,0.25
2022-09-20T10:59:23.892Z,0.20
2022-09-20T11:02:14.482Z,0.40
2022-09-20T11:04:59.849Z,0.30
2022-09-20T11:07:52.709Z,0.20
2022-09-20T11:10:37.957Z,0.30
2022-09-20T11:13:40.381Z,0.20
2022-09-20T11:16:16.172Z,0.17
2022-09-20T11:19:00.639Z,0.30
2022-09-20T11:21:36.596Z,0.55
2022-09-20T11:24:31.069Z,0.20
2022-09-20T11:27:23.425Z,0.30
2022-09-20T11:30:07.342Z,0.80
2022-09-20T11:33:15.290Z,0.45
2022-09-20T11:35:52.634Z,0.10
2022-09-20T11:38:33.070Z,0.20
2022-09-20T11:41:26.882Z,0.10
2022-09-20T11:44:00.618Z,0.52
2022-09-20T11:46:40.501Z,0.20
2022-09-20T11:49:25.167Z,0.20
2022-09-20T11:52:20.877Z,0.10
2022-09-20T11:55:18.255Z,0.30
2022-09-20T11:57:46.777Z,0.10
2022-09-20T12:00:13.908Z,0.50
2022-09-20T12:02:53.180Z,0.10
2022-09-20T12:05:39.189Z,0.22
2022-09-20T12:08:17.943Z,0.55
2022-09-20T12:11:00.217Z,0.30
2022-09-20T12:13:28.168Z,0.38
2022-09-20T12:16:05.125Z,0.22
2022-09-20T12:19:05.526Z,0.85
2022-09-20T12:22:12.788Z,0.20
2022-09-20T12:24:45.111Z,0.20
2022-09-20T12:27:52.946Z,0.45
2022-09-20T12:30:22.170Z,0.30
2022-09-20T12:32:52.307Z,0.20
2022-09-20T12:38:31.364Z,0.43
2022-09-20T12:41:08.631Z,0.30
2022-09-20T12:43:46.842Z,0.47
2022-09-20T12:46:25.617Z,0.30
2022-09-20T12:49:46.200Z,0.22
2022-09-20T12:52:54.098Z,0.30
2022-09-20T12:55:50.405Z,0.25
2022-09-20T12:58:25.318Z,0.30
2022-09-20T13:01:32.410Z,0.10
2022-09-20T13:04:40.124Z,0.40
2022-09-20T13:07:33.479Z,0.20
2022-09-20T13:10:24.208Z,0.25
2022-09-20T13:12:57.695Z,0.20
2022-09-20T13:15:25.058Z,0.38
2022-09-20T13:17:55.285Z,0.50
2022-09-20T13:20:28.190Z,0.55
2022-09-20T13:23:00.137Z,0.30
2022-09-20T13:25:28.781Z,0.30
2022-09-20T13:28:21.350Z,0.20
2022-09-20T13:30:48.516Z,0.50
2022-09-20T13:33:25.252Z,0.47
2022-09-20T13:35:57.088Z,0.75
2022-09-20T13:38:28.184Z,0.38
2022-09-20T13:41:06.480Z,0.75
2022-09-20T13:43:43.652Z,0.40
2022-09-20T13:46:13.661Z,0.88
2022-09-20T13:48:40.970Z,0.40
2022-09-20T13:51:25.846Z,1.55
2022-09-20T13:53:53.687Z,0.40
2022-09-20T13:56:28.814Z,0.50
2022-09-20T13:58:59.147Z,0.28
2022-09-20T14:01:34.984Z,0.32
2022-09-20T14:04:09.280Z,0.52
2022-09-20T14:06:36.871Z,0.45
2022-09-20T14:09:11.141Z,0.70
2022-09-20T14:11:39.527Z,0.30
2022-09-20T14:14:08.128Z,0.30
2022-09-20T14:16:39.895Z,0.32
2022-09-20T14:19:08.190Z,1.15
2022-09-20T14:21:38.396Z,0.28
2022-09-20T14:27:26.268Z,0.32
2022-09-20T14:29:54.636Z,0.73
2022-09-20T14:32:43.250Z,0.30
2022-09-20T14:35:20.668Z,0.52
2022-09-20T14:38:00.531Z,0.40
2022-09-20T14:40:30.572Z,0.50
2022-09-20T14:43:03.759Z,0.65
2022-09-20T14:45:37.741Z,0.90
2022-09-20T14:48:31.389Z,0.60
2022-09-20T14:51:22.349Z,0.50
2022-09-20T14:54:13.943Z,0.80
2022-09-20T14:56:49.065Z,0.52
2022-09-20T14:59:30.387Z,0.70
2022-09-20T15:02:13.947Z,0.90
2022-09-20T15:04:51.429Z,0.95
2022-09-20T15:07:18.611Z,0.52
2022-09-20T15:09:45.704Z,1.00
2022-09-20T15:12:16.101Z,1.25
2022-09-20T15:14:43.152Z,1.13
2022-09-20T15:17:19.294Z,0.68
2022-09-20T15:19:47.913Z,0.70
2022-09-20T15:22:15.594Z,0.80
2022-09-20T15:24:43.079Z,1.40
2022-09-20T15:27:12.261Z,1.35
2022-09-20T15:29:39.324Z,1.58
2022-09-20T15:32:06.791Z,0.82
2022-09-20T15:34:33.788Z,0.80
2022-09-20T15:37:00.957Z,1.25
2022-09-20T15:39:28.136Z,1.60
2022-09-20T15:41:55.191Z,1.60
2022-09-20T15:44:22.276Z,0.90
2022-09-20T15:46:51.097Z,0.70
2022-09-20T15:49:18.152Z,0.75
2022-09-20T15:51:46.423Z,1.15
2022-09-20T15:54:14.834Z,1.10
2022-09-20T15:56:42.399Z,0.80
2022-09-20T15:59:11.303Z,1.58
2022-09-20T16:01:40.880Z,0.88
2022-09-20T16:04:13.570Z,1.25
2022-09-20T16:06:42.558Z,1.30
2022-09-20T16:09:10.196Z,0.73
2022-09-20T16:11:37.788Z,0.60
2022-09-20T16:14:05.661Z,0.70
2022-09-20T16:16:39.699Z,1.08
2022-09-20T16:19:17.559Z,0.85
2022-09-20T16:21:50.548Z,0.82
2022-09-20T16:24:24.622Z,0.60
2022-09-20T16:26:51.832Z,0.70
2022-09-20T16:29:19.665Z,0.65
2022-09-20T16:31:48.440Z,0.88
2022-09-20T16:34:19.359Z,1.17
2022-09-20T16:36:47.895Z,0.60
2022-09-20T16:39:18.156Z,0.77
2022-09-20T16:41:49.465Z,0.70
2022-09-20T16:44:16.670Z,1.45
2022-09-20T16:46:44.674Z,1.05
2022-09-20T16:49:13.217Z,1.02
2022-09-20T16:51:41.883Z,0.60
2022-09-20T16:54:12.481Z,1.25
2022-09-20T16:56:41.891Z,0.80
2022-09-20T16:59:09.454Z,0.77
2022-09-20T17:01:37.112Z,0.77
2022-09-20T17:04:05.600Z,0.80
2022-09-20T17:06:34.533Z,0.60
2022-09-20T17:09:02.340Z,0.80
2022-09-20T17:11:32.566Z,0.90
2022-09-20T17:16:32.245Z,0.50
2022-09-20T17:19:02.931Z,0.50
2022-09-20T17:21:31.242Z,0.98
2022-09-20T17:23:59.693Z,1.13
2022-09-20T17:26:31.497Z,0.68
2022-09-20T17:28:59.290Z,0.75
2022-09-20T17:31:30.397Z,0.80
2022-09-20T17:34:00.267Z,0.45
2022-09-20T17:36:29.187Z,0.60
2022-09-20T17:39:02.985Z,0.47
2022-09-20T17:41:31.185Z,1.00
2022-09-20T17:44:00.001Z,0.40
2022-09-20T17:46:33.061Z,0.40
2022-09-20T17:49:02.778Z,1.05
2022-09-20T17:51:45.080Z,1.35
2022-09-20T17:54:14.127Z,0.77
2022-09-20T17:56:43.735Z,0.65
2022-09-20T17:59:11.921Z,0.70
2022-09-20T18:01:40.619Z,1.45
2022-09-20T18:04:08.818Z,0.52
2022-09-20T18:06:38.803Z,0.60
2022-09-20T18:09:08.627Z,0.40
2022-09-20T18:11:39.334Z,0.60
2022-09-20T18:14:10.332Z,1.02
2022-09-20T18:16:38.607Z,0.52
2022-09-20T18:19:07.356Z,0.73
2022-09-20T18:21:36.209Z,0.50
2022-09-20T18:24:06.510Z,0.52
2022-09-20T18:29:12.633Z,0.60
2022-09-20T18:31:49.117Z,0.50
2022-09-20T18:34:21.995Z,1.00
2022-09-20T18:36:53.279Z,0.55
2022-09-20T18:39:25.692Z,1.52
2022-09-20T18:41:53.368Z,0.35
2022-09-20T18:44:22.495Z,0.45
2022-09-20T18:46:53.135Z,0.43
2022-09-20T18:49:21.690Z,0.38
2022-09-20T18:51:49.414Z,0.60
2022-09-20T18:54:16.902Z,0.60
2022-09-20T18:56:51.232Z,0.45
2022-09-20T18:59:24.382Z,1.02
2022-09-20T19:02:16.084Z,0.60
2022-09-20T19:05:23.739Z,1.40
2022-09-20T19:08:18.655Z,0.45
2022-09-20T19:10:58.830Z,0.40
2022-09-20T19:13:48.765Z,0.68
2022-09-20T19:16:34.777Z,0.52
2022-09-20T19:19:33.897Z,0.40
2022-09-20T19:22:14.972Z,0.70
2022-09-20T19:25:03.518Z,0.40
2022-09-20T19:27:30.796Z,0.70
2022-09-20T19:29:58.174Z,0.52
2022-09-20T19:32:27.416Z,0.45
2022-09-20T19:35:02.180Z,0.52
2022-09-20T19:38:12.435Z,0.22
2022-09-20T19:41:02.849Z,0.88
2022-09-20T19:46:40.356Z,0.40
2022-09-20T19:49:16.957Z,0.60
2022-09-20T19:51:44.998Z,0.60
2022-09-20T19:54:15.019Z,0.55
2022-09-20T19:56:55.740Z,0.35
2022-09-20T19:59:24.848Z,0.68
2022-09-20T20:01:53.105Z,0.88
2022-09-20T20:04:21.449Z,0.60
2022-09-20T20:07:14.212Z,0.70
2022-09-20T20:09:55.143Z,0.52
2022-09-20T20:12:53.327Z,0.65
2022-09-20T20:15:45.557Z,0.90
2022-09-20T20:18:51.585Z,0.70
2022-09-20T20:21:36.245Z,1.13
2022-09-20T20:24:29.068Z,0.50
2022-09-20T20:26:56.048Z,0.47
2022-09-20T20:29:23.047Z,1.02
2022-09-20T20:31:50.075Z,0.85
2022-09-20T20:34:17.532Z,0.88
2022-09-20T20:36:44.750Z,0.60
2022-09-20T20:39:12.311Z,0.80
2022-09-20T20:41:40.748Z,0.80
2022-09-20T20:44:07.797Z,0.85
2022-09-20T20:46:36.121Z,0.90
2022-09-20T20:49:04.090Z,0.80
2022-09-20T20:51:33.426Z,0.65
2022-09-20T20:54:00.521Z,0.73
2022-09-20T20:56:30.128Z,0.80
2022-09-20T20:59:01.464Z,0.70
2022-09-20T21:01:31.055Z,0.63
2022-09-20T21:03:58.937Z,0.60
2022-09-20T21:06:30.241Z,0.80
2022-09-20T21:08:57.203Z,0.57
2022-09-20T21:11:31.185Z,0.95
2022-09-20T21:14:00.647Z,0.98
2022-09-20T21:16:30.472Z,0.97
2022-09-20T21:18:58.503Z,1.00
2022-09-20T21:21:31.220Z,0.80
2022-09-20T21:24:00.177Z,0.95
2022-09-20T21:26:32.015Z,0.82
2022-09-20T21:29:01.385Z,1.13
2022-09-20T21:31:30.822Z,0.70
2022-09-20T21:33:58.300Z,0.80
2022-09-20T21:36:27.690Z,0.90
2022-09-20T21:38:54.976Z,0.90
2022-09-20T21:41:24.491Z,0.80
2022-09-20T21:43:56.317Z,0.80
2022-09-20T21:46:28.446Z,0.90
2022-09-20T21:48:57.492Z,1.00
2022-09-20T21:51:25.938Z,0.70
2022-09-20T21:53:58.183Z,1.10
2022-09-20T21:56:31.340Z,0.75
2022-09-20T21:58:59.208Z,0.57
2022-09-20T22:01:28.177Z,0.80
2022-09-20T22:03:59.197Z,0.80
2022-09-20T22:06:28.727Z,0.73
2022-09-20T22:08:58.557Z,0.82
2022-09-20T22:11:28.081Z,0.70
2022-09-20T22:13:56.112Z,0.65
2022-09-20T22:16:27.382Z,0.80
2022-09-20T22:18:56.139Z,0.60
2022-09-20T22:21:29.325Z,0.70
2022-09-20T22:23:58.917Z,0.95
2022-09-20T22:26:28.798Z,1.00
2022-09-20T22:28:55.968Z,0.70
2022-09-20T22:31:26.057Z,0.88
2022-09-20T22:34:05.088Z,0.68
2022-09-20T22:36:35.415Z,0.63
2022-09-20T22:41:29.992Z,0.80
2022-09-20T22:43:57.259Z,0.50
2022-09-20T22:46:26.795Z,0.73
2022-09-20T22:48:53.977Z,0.73
2022-09-20T22:51:26.375Z,0.52
2022-09-20T22:53:53.640Z,0.55
2022-09-20T22:56:25.077Z,0.80
2022-09-20T22:58:54.406Z,1.17
2022-09-20T23:01:32.790Z,1.30
2022-09-20T23:04:09.385Z,0.80
2022-09-20T23:06:41.932Z,0.80
2022-09-20T23:09:12.213Z,0.63
2022-09-20T23:14:12.211Z,0.60
2022-09-20T23:16:39.763Z,0.63
2022-09-20T23:19:08.765Z,0.60
2022-09-20T23:21:38.369Z,0.70
2022-09-20T23:24:08.085Z,0.63
2022-09-20T23:26:37.018Z,0.82
2022-09-20T23:29:07.390Z,0.63
2022-09-20T23:34:06.264Z,0.80
2022-09-20T23:36:35.662Z,0.50
2022-09-20T23:39:02.787Z,0.85
2022-09-20T23:41:30.519Z,0.60
2022-09-20T23:43:57.776Z,0.70
2022-09-20T23:46:26.804Z,0.55
2022-09-20T23:48:54.277Z,0.70
2022-09-20T23:51:24.572Z,0.70
2022-09-20T23:56:19.702Z,0.68
2022-09-20T23:58:47.239Z,0.47
